createdAt,value
2022-12-25T00:00:06.281Z,7.07
2022-12-25T00:02:33.150Z,7.09
2022-12-25T00:04:59.785Z,7.13
2022-12-25T00:07:26.411Z,7.14
2022-12-25T00:09:52.982Z,7.15
2022-12-25T00:12:20.981Z,7.14
2022-12-25T00:14:47.543Z,7.14
2022-12-25T00:17:14.371Z,7.21
2022-12-25T00:19:40.947Z,7.18
2022-12-25T00:22:07.484Z,7.25
2022-12-25T00:24:34.026Z,7.12
2022-12-25T00:27:00.598Z,6.99
2022-12-25T00:29:27.282Z,7.10
2022-12-25T00:31:53.882Z,6.91
2022-12-25T00:34:20.530Z,6.82
2022-12-25T00:36:50.622Z,6.59
2022-12-25T00:39:17.242Z,6.45
2022-12-25T00:42:02.128Z,6.44
2022-12-25T00:44:28.695Z,6.51
2022-12-25T00:46:55.257Z,6.48
2022-12-25T00:49:23.834Z,6.66
2022-12-25T00:51:51.419Z,6.48
2022-12-25T00:54:18.862Z,6.54
2022-12-25T00:56:45.619Z,6.29
2022-12-25T00:59:13.031Z,6.26
2022-12-25T01:01:40.331Z,6.21
2022-12-25T01:04:08.782Z,6.12
2022-12-25T01:06:35.316Z,6.04
2022-12-25T01:09:20.341Z,5.95
2022-12-25T01:11:46.865Z,5.86
2022-12-25T01:14:13.606Z,5.88
2022-12-25T01:16:40.223Z,5.68
2022-12-25T01:19:06.825Z,5.55
2022-12-25T01:21:33.377Z,5.46
2022-12-25T01:23:59.920Z,5.25
2022-12-25T01:26:27.226Z,5.04
2022-12-25T01:28:53.837Z,4.99
2022-12-25T01:31:24.117Z,5.11
2022-12-25T01:33:51.123Z,5.06
2022-12-25T01:36:25.543Z,4.71
2022-12-25T01:38:53.624Z,4.99
2022-12-25T01:41:23.568Z,4.92
2022-12-25T01:44:37.624Z,4.81
2022-12-25T01:47:06.069Z,4.83
2022-12-25T01:49:36.376Z,4.83
2022-12-25T01:52:10.684Z,4.93
2022-12-25T01:54:46.406Z,4.57
2022-12-25T01:57:19.073Z,4.69
2022-12-25T01:59:46.479Z,4.78
2022-12-25T02:02:13.306Z,4.71
2022-12-25T02:04:50.588Z,4.65
2022-12-25T02:07:20.465Z,4.81
2022-12-25T02:09:47.751Z,4.93
2022-12-25T02:12:26.944Z,4.81
2022-12-25T02:15:04.641Z,4.80
2022-12-25T02:17:38.067Z,5.13
2022-12-25T02:20:26.246Z,4.92
2022-12-25T02:23:01.838Z,5.06
2022-12-25T02:25:49.966Z,4.74
2022-12-25T02:28:32.439Z,4.65
2022-12-25T02:31:12.485Z,4.34
2022-12-25T02:34:04.082Z,4.74
2022-12-25T02:36:45.400Z,4.75
2022-12-25T02:39:46.387Z,4.66
2022-12-25T02:42:21.536Z,4.36
2022-12-25T02:45:09.571Z,4.19
2022-12-25T02:47:55.300Z,4.11
2022-12-25T02:50:42.760Z,3.88
2022-12-25T02:53:28.420Z,3.86
2022-12-25T02:56:15.246Z,3.84
2022-12-25T02:59:02.619Z,3.96
2022-12-25T03:01:52.285Z,3.83
2022-12-25T03:04:40.220Z,3.81
2022-12-25T03:07:17.638Z,3.71
2022-12-25T03:10:09.747Z,3.71
2022-12-25T03:12:53.630Z,3.49
2022-12-25T03:15:39.527Z,3.41
2022-12-25T03:18:12.023Z,3.10
2022-12-25T03:20:57.685Z,3.17
2022-12-25T03:23:48.147Z,3.26
2022-12-25T03:26:33.318Z,3.21
2022-12-25T03:28:59.837Z,3.50
2022-12-25T03:31:50.178Z,3.67
2022-12-25T03:34:52.294Z,3.41
2022-12-25T03:37:30.502Z,3.56
2022-12-25T03:40:18.698Z,3.83
2022-12-25T03:43:13.478Z,3.63
2022-12-25T03:46:03.924Z,3.55
2022-12-25T03:48:52.668Z,3.50
2022-12-25T03:51:44.574Z,3.59
2022-12-25T03:54:31.590Z,3.48
2022-12-25T03:57:16.839Z,3.45
2022-12-25T04:00:01.788Z,3.37
2022-12-25T04:02:46.518Z,3.38
2022-12-25T04:05:31.740Z,3.35
2022-12-25T04:08:18.527Z,3.49
2022-12-25T04:11:03.897Z,3.39
2022-12-25T04:13:49.182Z,3.40
2022-12-25T04:16:34.540Z,3.32
2022-12-25T04:19:19.488Z,3.23
2022-12-25T04:22:04.219Z,3.19
2022-12-25T04:24:49.149Z,3.18
2022-12-25T04:27:34.655Z,2.99
2022-12-25T04:30:19.377Z,3.16
2022-12-25T04:33:04.205Z,3.01
2022-12-25T04:35:49.594Z,2.96
2022-12-25T04:38:20.771Z,3.01
2022-12-25T04:40:47.420Z,2.81
2022-12-25T04:43:14.005Z,2.69
2022-12-25T04:45:40.512Z,2.62
2022-12-25T04:48:07.019Z,2.48
2022-12-25T04:50:33.550Z,2.44
2022-12-25T04:53:00.041Z,2.41
2022-12-25T04:55:26.572Z,2.26
2022-12-25T04:57:53.093Z,2.29
2022-12-25T05:00:19.941Z,2.25
2022-12-25T05:02:46.669Z,2.16
2022-12-25T05:05:13.336Z,2.00
2022-12-25T05:07:39.878Z,2.24
2022-12-25T05:10:07.086Z,2.41
2022-12-25T05:12:33.664Z,2.44
2022-12-25T05:15:00.287Z,2.54
2022-12-25T05:17:27.053Z,2.37
2022-12-25T05:19:53.571Z,2.35
2022-12-25T05:22:20.128Z,2.13
2022-12-25T05:24:46.657Z,2.15
2022-12-25T05:27:14.021Z,2.02
2022-12-25T05:29:40.520Z,2.39
2022-12-25T05:32:07.259Z,2.40
2022-12-25T05:34:33.755Z,2.26
2022-12-25T05:37:00.326Z,2.51
2022-12-25T05:39:26.849Z,2.52
2022-12-25T05:41:53.386Z,2.35
2022-12-25T05:44:19.896Z,2.28
2022-12-25T05:46:46.506Z,2.05
2022-12-25T05:49:13.187Z,2.03
2022-12-25T05:51:39.780Z,1.91
2022-12-25T05:54:06.391Z,2.06
2022-12-25T05:56:33.135Z,2.08
2022-12-25T05:58:59.664Z,2.23
2022-12-25T06:01:28.271Z,2.14
2022-12-25T06:03:55.097Z,2.06
2022-12-25T06:06:21.667Z,1.89
2022-12-25T06:08:48.250Z,1.80
2022-12-25T06:11:15.675Z,1.76
2022-12-25T06:13:42.699Z,1.53
2022-12-25T06:16:11.248Z,1.64
2022-12-25T06:18:40.130Z,1.57
2022-12-25T06:21:11.471Z,1.58
2022-12-25T06:23:38.620Z,1.82
2022-12-25T06:26:10.986Z,1.82
2022-12-25T06:28:38.036Z,1.88
2022-12-25T06:31:10.292Z,1.71
2022-12-25T06:33:37.409Z,1.68
2022-12-25T06:36:16.250Z,1.70
2022-12-25T06:38:43.345Z,1.46
2022-12-25T06:41:18.482Z,1.28
2022-12-25T06:43:53.014Z,1.24
2022-12-25T06:46:20.667Z,1.10
2022-12-25T06:48:50.461Z,1.12
2022-12-25T06:51:24.918Z,1.16
2022-12-25T06:53:52.689Z,1.14
2022-12-25T06:56:22.282Z,1.21
2022-12-25T06:58:51.443Z,1.19
2022-12-25T07:01:23.567Z,1.13
2022-12-25T07:03:53.359Z,1.27
2022-12-25T07:06:19.806Z,1.35
2022-12-25T07:08:46.331Z,1.30
2022-12-25T07:11:13.090Z,1.14
2022-12-25T07:13:39.694Z,1.66
2022-12-25T07:16:07.823Z,1.80
2022-12-25T07:18:34.737Z,1.90
2022-12-25T07:21:10.158Z,1.94
2022-12-25T07:23:36.789Z,1.77
2022-12-25T07:26:03.754Z,1.77
2022-12-25T07:28:31.176Z,1.72
2022-12-25T07:31:06.356Z,1.55
2022-12-25T07:33:33.965Z,1.30
2022-12-25T07:36:00.921Z,1.21
2022-12-25T07:38:27.717Z,1.62
2022-12-25T07:40:54.256Z,1.59
2022-12-25T07:43:20.896Z,1.93
2022-12-25T07:45:47.542Z,1.72
2022-12-25T07:48:16.901Z,1.59
2022-12-25T07:50:43.785Z,1.71
2022-12-25T07:53:10.349Z,1.65
2022-12-25T07:55:36.906Z,1.65
2022-12-25T07:58:03.458Z,1.68
2022-12-25T08:00:33.675Z,1.59
2022-12-25T08:03:00.439Z,1.90
2022-12-25T08:05:27.203Z,2.14
2022-12-25T08:07:57.798Z,2.30
2022-12-25T08:10:24.900Z,2.46
2022-12-25T08:12:52.093Z,2.47
2022-12-25T08:15:18.692Z,2.45
2022-12-25T08:17:45.317Z,2.59
2022-12-25T08:20:12.206Z,2.65
2022-12-25T08:22:38.742Z,2.63
2022-12-25T08:25:05.382Z,2.76
2022-12-25T08:27:32.082Z,2.85
2022-12-25T08:29:58.617Z,2.82
2022-12-25T08:32:25.465Z,2.91
2022-12-25T08:34:52.009Z,2.98
2022-12-25T08:37:18.582Z,2.99
2022-12-25T08:39:45.150Z,2.94
2022-12-25T08:42:11.676Z,2.82
2022-12-25T08:44:38.210Z,2.96
2022-12-25T08:47:04.940Z,2.95
2022-12-25T08:49:31.923Z,3.12
2022-12-25T08:51:58.716Z,3.22
2022-12-25T08:54:25.306Z,3.23
2022-12-25T08:56:53.338Z,3.41
2022-12-25T08:59:21.646Z,3.44
2022-12-25T09:01:48.363Z,3.49
2022-12-25T09:04:15.053Z,3.55
2022-12-25T09:06:41.597Z,3.54
2022-12-25T09:09:08.156Z,3.56
2022-12-25T09:11:34.704Z,3.67
2022-12-25T09:14:01.225Z,3.68
2022-12-25T09:16:28.121Z,3.80
2022-12-25T09:18:56.734Z,3.77
2022-12-25T09:21:23.276Z,3.69
2022-12-25T09:23:50.062Z,3.79
2022-12-25T09:26:18.091Z,3.77
2022-12-25T09:28:50.664Z,3.80
2022-12-25T09:31:17.767Z,3.73
2022-12-25T09:33:44.333Z,3.85
2022-12-25T09:36:10.952Z,3.89
2022-12-25T09:38:37.619Z,3.97
2022-12-25T09:41:17.134Z,4.00
2022-12-25T09:43:51.480Z,4.00
2022-12-25T09:46:23.334Z,4.02
2022-12-25T09:49:06.115Z,4.04
2022-12-25T09:51:35.733Z,4.05
2022-12-25T09:54:04.999Z,4.05
2022-12-25T09:56:33.310Z,3.98
2022-12-25T09:58:59.942Z,4.01
2022-12-25T10:01:29.285Z,4.17
2022-12-25T10:04:11.272Z,4.18
2022-12-25T10:06:55.766Z,4.20
2022-12-25T10:09:31.471Z,4.33
2022-12-25T10:12:00.640Z,4.35
2022-12-25T10:14:30.230Z,4.34
2022-12-25T10:16:56.621Z,4.46
2022-12-25T10:19:58.645Z,4.50
2022-12-25T10:22:48.485Z,4.61
2022-12-25T10:25:18.951Z,4.61
2022-12-25T10:27:54.645Z,4.73
2022-12-25T10:30:24.122Z,4.91
2022-12-25T10:32:51.879Z,4.90
2022-12-25T10:35:24.325Z,4.97
2022-12-25T10:38:00.660Z,5.08
2022-12-25T10:40:58.196Z,5.09
2022-12-25T10:43:36.717Z,5.22
2022-12-25T10:46:10.881Z,5.26
2022-12-25T10:48:44.457Z,5.32
2022-12-25T10:51:11.154Z,5.43
2022-12-25T10:53:43.104Z,5.53
2022-12-25T10:56:19.302Z,5.47
2022-12-25T10:58:45.887Z,5.47
2022-12-25T11:01:13.556Z,5.67
2022-12-25T11:03:44.647Z,5.81
2022-12-25T11:06:40.472Z,5.92
2022-12-25T11:09:07.763Z,6.02
2022-12-25T11:11:34.502Z,6.11
2022-12-25T11:14:02.718Z,6.28
2022-12-25T11:16:40.284Z,6.40
2022-12-25T11:19:21.989Z,6.61
2022-12-25T11:21:57.515Z,6.68
2022-12-25T11:24:32.726Z,6.90
2022-12-25T11:27:02.114Z,7.09
2022-12-25T11:29:59.184Z,7.29
2022-12-25T11:32:31.587Z,7.20
2022-12-25T11:34:59.511Z,7.27
2022-12-25T11:37:49.083Z,7.12
2022-12-25T11:40:38.822Z,7.11
2022-12-25T11:43:29.300Z,7.13
2022-12-25T11:46:11.986Z,7.18
2022-12-25T11:48:47.157Z,7.30
2022-12-25T11:51:15.462Z,7.57
2022-12-25T11:53:41.923Z,7.57
2022-12-25T11:56:21.719Z,7.58
2022-12-25T11:59:03.389Z,7.55
2022-12-25T12:01:46.943Z,7.46
2022-12-25T12:04:25.909Z,7.43
2022-12-25T12:07:23.624Z,7.59
2022-12-25T12:10:08.638Z,7.65
2022-12-25T12:12:48.805Z,7.63
2022-12-25T12:15:29.257Z,7.69
2022-12-25T12:18:08.213Z,7.76
2022-12-25T12:20:35.869Z,7.84
2022-12-25T12:23:10.584Z,7.89
2022-12-25T12:25:43.045Z,8.03
2022-12-25T12:28:20.605Z,8.14
2022-12-25T12:31:01.357Z,8.18
2022-12-25T12:33:34.771Z,8.26
2022-12-25T12:36:03.287Z,8.28
2022-12-25T12:38:32.334Z,8.30
2022-12-25T12:41:02.283Z,8.35
2022-12-25T12:43:57.468Z,8.49
2022-12-25T12:46:30.930Z,8.68
2022-12-25T12:49:16.682Z,8.78
2022-12-25T12:51:43.207Z,8.85
2022-12-25T12:54:26.024Z,8.90
2022-12-25T12:56:55.353Z,8.87
2022-12-25T12:59:22.181Z,8.84
2022-12-25T13:02:14.605Z,8.81
2022-12-25T13:05:03.899Z,8.74
2022-12-25T13:07:48.673Z,8.73
2022-12-25T13:10:43.983Z,8.65
2022-12-25T13:13:20.352Z,8.69
2022-12-25T13:15:50.323Z,8.67
2022-12-25T13:18:17.590Z,8.62
2022-12-25T13:20:55.228Z,8.69
2022-12-25T13:23:21.693Z,8.56
2022-12-25T13:25:54.485Z,8.61
2022-12-25T13:28:29.803Z,8.56
2022-12-25T13:31:05.613Z,8.55
2022-12-25T13:33:32.919Z,8.50
2022-12-25T13:35:59.610Z,8.54
2022-12-25T13:38:28.948Z,8.39
2022-12-25T13:41:15.491Z,8.41
2022-12-25T13:43:44.538Z,8.46
2022-12-25T13:46:15.604Z,8.39
2022-12-25T13:48:43.054Z,8.30
2022-12-25T13:51:15.944Z,8.33
2022-12-25T13:53:43.740Z,8.26
2022-12-25T13:56:16.289Z,8.20
2022-12-25T13:58:46.436Z,8.20
2022-12-25T14:01:16.424Z,8.16
2022-12-25T14:03:47.754Z,8.06
2022-12-25T14:06:30.055Z,7.96
2022-12-25T14:09:04.151Z,8.09
2022-12-25T14:11:33.679Z,8.08
2022-12-25T14:14:07.651Z,8.06
2022-12-25T14:16:35.613Z,7.93
2022-12-25T14:19:03.678Z,7.80
2022-12-25T14:21:34.727Z,7.76
2022-12-25T14:24:01.394Z,7.84
2022-12-25T14:26:30.747Z,7.99
2022-12-25T14:29:09.239Z,8.00
2022-12-25T14:31:42.468Z,7.97
2022-12-25T14:34:17.807Z,7.60
2022-12-25T14:36:44.884Z,7.72
2022-12-25T14:39:35.308Z,7.88
2022-12-25T14:42:12.670Z,7.61
2022-12-25T14:44:41.268Z,7.49
2022-12-25T14:47:10.819Z,7.60
2022-12-25T14:49:37.938Z,7.57
2022-12-25T14:52:18.047Z,7.59
2022-12-25T14:54:47.797Z,7.39
2022-12-25T14:57:22.686Z,7.38
2022-12-25T14:59:58.943Z,7.31
2022-12-25T15:02:25.876Z,7.33
2022-12-25T15:04:53.484Z,7.56
2022-12-25T15:07:38.535Z,7.53
2022-12-25T15:10:57.478Z,7.51
2022-12-25T15:12:56.831Z,7.50
2022-12-25T15:15:23.464Z,7.49
2022-12-25T15:17:50.635Z,7.51
2022-12-25T15:20:17.454Z,7.48
2022-12-25T15:25:30.823Z,7.48
2022-12-25T15:27:57.456Z,7.51
2022-12-25T15:30:24.084Z,7.52
2022-12-25T15:32:50.672Z,7.52
2022-12-25T15:35:21.507Z,7.55
2022-12-25T15:37:48.226Z,7.56
2022-12-25T15:40:16.358Z,7.57
2022-12-25T15:42:45.009Z,7.54
2022-12-25T15:45:19.743Z,7.46
2022-12-25T15:47:46.611Z,7.64
2022-12-25T15:50:13.214Z,7.63
2022-12-25T15:52:39.744Z,7.63
2022-12-25T15:55:07.562Z,7.60
2022-12-25T15:57:35.147Z,7.57
2022-12-25T16:00:03.478Z,7.63
2022-12-25T16:02:30.073Z,7.63
2022-12-25T16:04:56.840Z,7.67
2022-12-25T16:07:24.983Z,7.63
2022-12-25T16:09:52.505Z,7.64
2022-12-25T16:12:19.577Z,7.57
2022-12-25T16:14:46.205Z,7.58
2022-12-25T16:17:15.543Z,7.40
2022-12-25T16:19:44.580Z,7.41
2022-12-25T16:22:19.065Z,7.56
2022-12-25T16:24:45.661Z,7.32
2022-12-25T16:27:12.193Z,7.43
2022-12-25T16:29:38.754Z,7.45
2022-12-25T16:32:05.308Z,7.59
2022-12-25T16:34:31.829Z,7.78
2022-12-25T16:36:58.321Z,7.76
2022-12-25T16:39:24.867Z,7.79
2022-12-25T16:41:51.379Z,7.70
2022-12-25T16:44:17.954Z,7.72
2022-12-25T16:46:44.630Z,7.80
2022-12-25T16:49:11.812Z,7.72
2022-12-25T16:51:38.564Z,7.84
2022-12-25T16:54:05.472Z,7.87
2022-12-25T16:56:32.435Z,7.87
2022-12-25T16:59:01.003Z,8.01
2022-12-25T17:01:27.805Z,8.00
2022-12-25T17:03:54.551Z,7.98
2022-12-25T17:06:24.341Z,7.83
2022-12-25T17:08:52.541Z,7.88
2022-12-25T17:11:23.565Z,7.87
2022-12-25T17:13:50.459Z,7.74
2022-12-25T17:16:25.224Z,7.71
2022-12-25T17:18:56.454Z,7.84
2022-12-25T17:21:24.295Z,7.82
2022-12-25T17:23:51.017Z,7.72
2022-12-25T17:26:17.602Z,7.76
2022-12-25T17:28:44.221Z,7.69
2022-12-25T17:31:13.530Z,7.81
2022-12-25T17:33:42.592Z,7.82
2022-12-25T17:36:15.433Z,7.80
2022-12-25T17:38:43.694Z,7.80
2022-12-25T17:41:13.215Z,7.91
2022-12-25T17:43:44.321Z,7.89
2022-12-25T17:46:19.116Z,7.95
2022-12-25T17:48:46.212Z,7.96
2022-12-25T17:51:16.105Z,7.90
2022-12-25T17:53:47.727Z,8.00
2022-12-25T17:56:15.160Z,8.02
2022-12-25T17:58:42.897Z,8.06
2022-12-25T18:01:12.528Z,8.10
2022-12-25T18:03:39.606Z,8.18
2022-12-25T18:06:08.563Z,8.19
2022-12-25T18:08:38.887Z,8.24
2022-12-25T18:11:08.634Z,8.27
2022-12-25T18:13:35.220Z,8.23
2022-12-25T18:16:03.710Z,8.22
2022-12-25T18:18:31.156Z,8.20
2022-12-25T18:20:57.945Z,8.17
2022-12-25T18:23:25.121Z,8.20
2022-12-25T18:25:51.768Z,8.15
2022-12-25T18:28:18.698Z,8.12
2022-12-25T18:30:46.389Z,8.12
2022-12-25T18:33:13.443Z,8.08
2022-12-25T18:35:41.655Z,8.11
2022-12-25T18:38:09.742Z,8.11
2022-12-25T18:40:48.316Z,8.18
2022-12-25T18:43:15.386Z,8.24
2022-12-25T18:45:42.818Z,8.06
2022-12-25T18:48:10.638Z,8.18
2022-12-25T18:50:39.335Z,8.23
2022-12-25T18:53:08.011Z,8.28
2022-12-25T18:55:34.713Z,8.31
2022-12-25T18:58:02.370Z,8.33
2022-12-25T19:00:28.983Z,8.08
2022-12-25T19:02:58.396Z,8.09
2022-12-25T19:05:25.329Z,8.12
2022-12-25T19:07:52.036Z,8.20
2022-12-25T19:10:18.610Z,8.10
2022-12-25T19:12:45.245Z,8.21
2022-12-25T19:15:12.211Z,8.19
2022-12-25T19:17:38.867Z,8.19
2022-12-25T19:20:06.154Z,8.32
2022-12-25T19:22:32.699Z,8.32
2022-12-25T19:24:59.290Z,8.28
2022-12-25T19:27:25.968Z,8.24
2022-12-25T19:29:52.574Z,8.33
2022-12-25T19:32:19.133Z,8.43
2022-12-25T19:34:45.701Z,8.61
2022-12-25T19:37:12.263Z,8.66
2022-12-25T19:39:39.861Z,8.58
2022-12-25T19:42:06.429Z,8.82
2022-12-25T19:44:33.036Z,8.84
2022-12-25T19:46:59.539Z,8.95
2022-12-25T19:49:26.135Z,8.98
2022-12-25T19:51:52.645Z,9.04
2022-12-25T19:54:20.698Z,9.01
2022-12-25T19:56:48.579Z,8.99
2022-12-25T19:59:15.705Z,9.02
2022-12-25T20:01:42.755Z,8.97
2022-12-25T20:04:10.385Z,9.08
2022-12-25T20:06:39.690Z,9.08
2022-12-25T20:09:07.679Z,9.11
2022-12-25T20:11:35.011Z,9.14
2022-12-25T20:14:03.347Z,9.07
2022-12-25T20:16:30.036Z,9.15
2022-12-25T20:18:58.056Z,9.12
2022-12-25T20:21:27.281Z,9.04
2022-12-25T20:23:54.294Z,9.10
2022-12-25T20:26:23.284Z,9.07
2022-12-25T20:28:50.531Z,9.20
2022-12-25T20:31:21.195Z,9.04
2022-12-25T20:33:47.872Z,9.20
2022-12-25T20:36:14.953Z,9.02
2022-12-25T20:38:42.245Z,9.01
2022-12-25T20:41:29.051Z,9.14
2022-12-25T20:43:57.094Z,9.03
2022-12-25T20:46:24.802Z,8.99
2022-12-25T20:48:52.784Z,9.03
2022-12-25T20:51:21.992Z,8.97
2022-12-25T20:53:50.012Z,8.94
2022-12-25T20:56:19.710Z,9.05
2022-12-25T20:58:46.297Z,8.93
2022-12-25T21:01:17.638Z,8.91
2022-12-25T21:03:44.914Z,8.98
2022-12-25T21:06:12.460Z,9.04
2022-12-25T21:08:39.183Z,9.03
2022-12-25T21:11:07.357Z,9.04
2022-12-25T21:13:36.404Z,9.01
2022-12-25T21:16:08.585Z,8.90
2022-12-25T21:18:35.178Z,8.89
2022-12-25T21:21:05.618Z,8.98
2022-12-25T21:23:33.060Z,9.00
2022-12-25T21:25:59.669Z,9.04
2022-12-25T21:28:27.131Z,9.02
2022-12-25T21:30:53.751Z,9.06
2022-12-25T21:33:46.664Z,9.04
2022-12-25T21:36:13.206Z,9.06
2022-12-25T21:38:39.844Z,9.06
2022-12-25T21:41:09.361Z,9.06
2022-12-25T21:43:37.553Z,8.96
2022-12-25T21:46:06.112Z,9.03
2022-12-25T21:48:34.129Z,9.04
2022-12-25T21:51:34.211Z,9.04
2022-12-25T21:54:01.758Z,9.02
2022-12-25T21:56:36.032Z,9.06
2022-12-25T21:59:07.195Z,8.99
2022-12-25T22:01:34.555Z,9.08
2022-12-25T22:04:07.017Z,8.98
2022-12-25T22:06:52.796Z,9.14
2022-12-25T22:09:20.530Z,9.11
2022-12-25T22:12:06.445Z,9.02
2022-12-25T22:14:55.027Z,9.05
2022-12-25T22:17:55.737Z,9.06
2022-12-25T22:20:28.229Z,8.82
2022-12-25T22:22:54.875Z,8.67
2022-12-25T22:25:22.248Z,8.80
2022-12-25T22:27:49.646Z,8.87
2022-12-25T22:30:19.564Z,8.83
2022-12-25T22:32:46.660Z,8.80
2022-12-25T22:35:14.028Z,8.69
2022-12-25T22:37:42.250Z,8.75
2022-12-25T22:40:11.081Z,8.94
2022-12-25T22:42:37.914Z,8.99
2022-12-25T22:45:05.401Z,9.00
2022-12-25T22:47:32.118Z,8.91
2022-12-25T22:49:58.691Z,8.98
2022-12-25T22:52:25.312Z,8.88
2022-12-25T22:54:51.901Z,9.14
2022-12-25T22:57:18.476Z,9.16
2022-12-25T22:59:45.053Z,9.21
2022-12-25T23:02:11.683Z,9.30
2022-12-25T23:04:38.279Z,9.19
2022-12-25T23:07:05.006Z,9.19
2022-12-25T23:09:31.586Z,9.37
2022-12-25T23:11:59.182Z,9.08
2022-12-25T23:14:39.130Z,9.03
2022-12-25T23:17:30.570Z,8.95
2022-12-25T23:20:16.913Z,9.16
2022-12-25T23:23:02.233Z,8.88
2022-12-25T23:25:47.549Z,8.88
2022-12-25T23:28:14.088Z,8.72
2022-12-25T23:30:40.617Z,8.73
2022-12-25T23:33:07.348Z,8.72
2022-12-25T23:35:33.937Z,8.67
2022-12-25T23:38:00.506Z,8.82
2022-12-25T23:40:27.063Z,8.80
2022-12-25T23:42:53.578Z,8.68
2022-12-25T23:45:20.122Z,8.84
2022-12-25T23:47:46.669Z,8.85
2022-12-25T23:50:13.202Z,8.70
2022-12-25T23:52:39.801Z,8.87
2022-12-25T23:55:07.030Z,8.99
2022-12-25T23:57:33.654Z,9.03
